C6054 TJBQ-TJBQ
Flight info
| Callsign | C6054 |
|---|---|
| Flight time | 0h 41m |
| Altitude | 9000 |
| Route | VFR |
| Aircraft | H60/L-DV/C |
Departure
| Time | 2026-04-26 18:29 |
|---|---|
| Airport | Rafael Hernández International Airport (TJBQ) |
Arrival
| Time | 2026-04-26 19:11 |
|---|---|
| Airport | Rafael Hernández International Airport (TJBQ) |
| Time | Latitude | Longitude | Altitude | Speed | Heading |
|---|---|---|---|---|---|
| 2026-04-26 18:27 | 18.49433 | -67.13876 | 224 ft | 0 kts | 106° |
| 2026-04-26 18:28 | 18.49430 | -67.13860 | 224 ft | 2 kts | 98° |
| 2026-04-26 18:28 | 18.49428 | -67.13853 | 225 ft | 1 kts | 245° |
| 2026-04-26 18:28 | 18.49414 | -67.13908 | 236 ft | 18 kts | 252° |
| 2026-04-26 18:28 | 18.49300 | -67.13990 | 245 ft | 21 kts | 231° |
| 2026-04-26 18:29 | 18.49178 | -67.14342 | 530 ft | 96 kts | 255° |
| 2026-04-26 18:29 | 18.49529 | -67.15052 | 874 ft | 138 kts | 321° |
| 2026-04-26 18:29 | 18.50537 | -67.14986 | 966 ft | 162 kts | 25° |
| 2026-04-26 18:29 | 18.51302 | -67.14129 | 1017 ft | 155 kts | 49° |
| 2026-04-26 18:30 | 18.52013 | -67.13332 | 1080 ft | 145 kts | 45° |
| 2026-04-26 18:30 | 18.52738 | -67.12576 | 1073 ft | 144 kts | 45° |
| 2026-04-26 18:30 | 18.53475 | -67.11807 | 1067 ft | 152 kts | 45° |
| 2026-04-26 18:30 | 18.54203 | -67.11043 | 1069 ft | 152 kts | 45° |
| 2026-04-26 18:31 | 18.54933 | -67.10268 | 1082 ft | 148 kts | 45° |
| 2026-04-26 18:31 | 18.55647 | -67.09501 | 1086 ft | 147 kts | 45° |
| 2026-04-26 18:31 | 18.56367 | -67.08725 | 1091 ft | 145 kts | 45° |
| 2026-04-26 18:31 | 18.57094 | -67.07937 | 1085 ft | 150 kts | 45° |
| 2026-04-26 18:32 | 18.57822 | -67.07140 | 1090 ft | 150 kts | 45° |
| 2026-04-26 18:32 | 18.58453 | -67.06338 | 1101 ft | 133 kts | 59° |
| 2026-04-26 18:32 | 18.58719 | -67.05422 | 1078 ft | 142 kts | 79° |
| 2026-04-26 18:32 | 18.58951 | -67.04345 | 1079 ft | 150 kts | 79° |
| 2026-04-26 18:33 | 18.59196 | -67.03261 | 1081 ft | 151 kts | 79° |
| 2026-04-26 18:33 | 18.59436 | -67.02180 | 1081 ft | 150 kts | 78° |
| 2026-04-26 18:33 | 18.59673 | -67.01108 | 1080 ft | 150 kts | 78° |
| 2026-04-26 18:33 | 18.59901 | -67.00027 | 1084 ft | 155 kts | 78° |
| 2026-04-26 18:34 | 18.60149 | -66.98945 | 1083 ft | 151 kts | 79° |
| 2026-04-26 18:34 | 18.60390 | -66.97875 | 1080 ft | 148 kts | 79° |
| 2026-04-26 18:34 | 18.60638 | -66.96829 | 1077 ft | 150 kts | 79° |
| 2026-04-26 18:34 | 18.60871 | -66.95765 | 1074 ft | 147 kts | 79° |
| 2026-04-26 18:35 | 18.61109 | -66.94699 | 1075 ft | 154 kts | 79° |
| 2026-04-26 18:35 | 18.61334 | -66.93638 | 1073 ft | 148 kts | 78° |
| 2026-04-26 18:35 | 18.61558 | -66.92589 | 1079 ft | 143 kts | 78° |
| 2026-04-26 18:35 | 18.61777 | -66.91522 | 1075 ft | 147 kts | 79° |
| 2026-04-26 18:36 | 18.62006 | -66.90481 | 1089 ft | 131 kts | 73° |
| 2026-04-26 18:36 | 18.62426 | -66.89799 | 1088 ft | 107 kts | 45° |
| 2026-04-26 18:36 | 18.63004 | -66.89106 | 1049 ft | 140 kts | 47° |
| 2026-04-26 18:36 | 18.63663 | -66.88351 | 1045 ft | 141 kts | 41° |
| 2026-04-26 18:37 | 18.64557 | -66.87891 | 1063 ft | 149 kts | 14° |
| 2026-04-26 18:37 | 18.65598 | -66.87806 | 1065 ft | 152 kts | 355° |
| 2026-04-26 18:37 | 18.66602 | -66.88010 | 1047 ft | 133 kts | 347° |
| 2026-04-26 18:37 | 18.67262 | -66.88579 | 415 ft | 147 kts | 285° |
| 2026-04-26 18:38 | 18.67077 | -66.89583 | 561 ft | 119 kts | 257° |
| 2026-04-26 18:38 | 18.66865 | -66.90308 | 690 ft | 93 kts | 255° |
| 2026-04-26 18:38 | 18.66517 | -66.90860 | 612 ft | 94 kts | 223° |
| 2026-04-26 18:38 | 18.65869 | -66.91089 | 195 ft | 104 kts | 179° |
| 2026-04-26 18:39 | 18.65284 | -66.90983 | 101 ft | 64 kts | 171° |
| 2026-04-26 18:39 | 18.64892 | -66.90903 | 36 ft | 41 kts | 168° |
| 2026-04-26 18:39 | 18.64811 | -66.90886 | 76 ft | 1 kts | 168° |
| 2026-04-26 18:39 | 18.64634 | -66.90874 | 218 ft | 52 kts | 171° |
| 2026-04-26 18:40 | 18.64170 | -66.90824 | 151 ft | 52 kts | 144° |
| 2026-04-26 18:40 | 18.64027 | -66.90701 | 140 ft | 5 kts | 135° |
| 2026-04-26 18:40 | 18.64022 | -66.90697 | 86 ft | 8 kts | 135° |
| 2026-04-26 18:40 | 18.63895 | -66.90545 | 167 ft | 29 kts | 133° |
| 2026-04-26 18:41 | 18.63739 | -66.90302 | 111 ft | 51 kts | 132° |
| 2026-04-26 18:41 | 18.63547 | -66.90032 | 99 ft | 44 kts | 132° |
| 2026-04-26 18:41 | 18.63397 | -66.89886 | 99 ft | 8 kts | 134° |
| 2026-04-26 18:41 | 18.63324 | -66.89828 | 133 ft | 29 kts | 134° |
| 2026-04-26 18:42 | 18.63114 | -66.89639 | 153 ft | 43 kts | 139° |
| 2026-04-26 18:42 | 18.63010 | -66.89582 | 94 ft | 4 kts | 144° |
| 2026-04-26 18:42 | 18.63017 | -66.89593 | 94 ft | 2 kts | 142° |
| 2026-04-26 18:42 | 18.62956 | -66.89600 | 121 ft | 19 kts | 145° |
| 2026-04-26 18:43 | 18.62746 | -66.89453 | 120 ft | 51 kts | 143° |
| 2026-04-26 18:43 | 18.62511 | -66.89227 | 110 ft | 25 kts | 131° |
| 2026-04-26 18:43 | 18.62479 | -66.89164 | 83 ft | 2 kts | 128° |
| 2026-04-26 18:43 | 18.62410 | -66.89038 | 104 ft | 33 kts | 120° |
| 2026-04-26 18:44 | 18.62348 | -66.88864 | 100 ft | 18 kts | 105° |
| 2026-04-26 18:44 | 18.62321 | -66.88753 | 146 ft | 7 kts | 105° |
| 2026-04-26 18:44 | 18.62318 | -66.88747 | 96 ft | 1 kts | 105° |
| 2026-04-26 18:44 | 18.62194 | -66.88284 | 201 ft | 124 kts | 105° |
| 2026-04-26 18:45 | 18.61921 | -66.87383 | 413 ft | 127 kts | 107° |
| 2026-04-26 18:45 | 18.61679 | -66.86446 | 279 ft | 130 kts | 102° |
| 2026-04-26 18:45 | 18.61302 | -66.85681 | 422 ft | 118 kts | 150° |
| 2026-04-26 18:45 | 18.60818 | -66.85032 | 269 ft | 126 kts | 84° |
| 2026-04-26 18:46 | 18.61388 | -66.84469 | 355 ft | 102 kts | 356° |
| 2026-04-26 18:46 | 18.61625 | -66.84807 | 369 ft | 81 kts | 240° |
| 2026-04-26 18:46 | 18.61105 | -66.84891 | 429 ft | 71 kts | 139° |
| 2026-04-26 18:46 | 18.60881 | -66.84435 | 324 ft | 82 kts | 80° |
| 2026-04-26 18:47 | 18.61194 | -66.84127 | 239 ft | 74 kts | 337° |
| 2026-04-26 18:47 | 18.61214 | -66.84581 | 281 ft | 80 kts | 222° |
| 2026-04-26 18:47 | 18.60666 | -66.84408 | 357 ft | 91 kts | 110° |
| 2026-04-26 18:47 | 18.60623 | -66.83866 | 295 ft | 84 kts | 56° |
| 2026-04-26 18:48 | 18.60996 | -66.83728 | 268 ft | 47 kts | 328° |
| 2026-04-26 18:48 | 18.61136 | -66.83935 | 209 ft | 31 kts | 291° |
| 2026-04-26 18:48 | 18.61173 | -66.84020 | 102 ft | 3 kts | 291° |
| 2026-04-26 18:48 | 18.61173 | -66.84019 | 109 ft | 1 kts | 291° |
| 2026-04-26 18:49 | 18.61208 | -66.84100 | 148 ft | 46 kts | 291° |
| 2026-04-26 18:49 | 18.61385 | -66.84669 | 805 ft | 87 kts | 271° |
| 2026-04-26 18:49 | 18.61092 | -66.85252 | 1561 ft | 95 kts | 234° |
| 2026-04-26 18:49 | 18.60455 | -66.85522 | 1180 ft | 106 kts | 187° |
| 2026-04-26 18:50 | 18.59767 | -66.85282 | 802 ft | 110 kts | 143° |
| 2026-04-26 18:50 | 18.59497 | -66.84569 | 921 ft | 101 kts | 74° |
| 2026-04-26 18:50 | 18.59840 | -66.84118 | 1005 ft | 68 kts | 353° |
| 2026-04-26 18:50 | 18.60338 | -66.84048 | 594 ft | 86 kts | 357° |
| 2026-04-26 18:51 | 18.60987 | -66.84126 | 530 ft | 92 kts | 342° |
| 2026-04-26 18:51 | 18.61362 | -66.84570 | 748 ft | 77 kts | 272° |
| 2026-04-26 18:51 | 18.61090 | -66.84966 | 670 ft | 74 kts | 187° |
| 2026-04-26 18:51 | 18.60642 | -66.84685 | 506 ft | 91 kts | 127° |
| 2026-04-26 18:52 | 18.60672 | -66.84046 | 605 ft | 84 kts | 50° |
| 2026-04-26 18:52 | 18.61125 | -66.83831 | 522 ft | 75 kts | 356° |
| 2026-04-26 18:52 | 18.61470 | -66.84255 | 350 ft | 89 kts | 288° |
| 2026-04-26 18:52 | 18.61195 | -66.84856 | 422 ft | 99 kts | 228° |
| 2026-04-26 18:53 | 18.60544 | -66.84913 | 462 ft | 97 kts | 154° |
| 2026-04-26 18:53 | 18.60278 | -66.84368 | 584 ft | 78 kts | 70° |
| 2026-04-26 18:53 | 18.60648 | -66.84117 | 585 ft | 71 kts | 0° |
| 2026-04-26 18:53 | 18.61052 | -66.84397 | 623 ft | 70 kts | 312° |
| 2026-04-26 18:54 | 18.61088 | -66.84764 | 777 ft | 45 kts | 193° |
| 2026-04-26 18:54 | 18.60854 | -66.84888 | 188 ft | 95 kts | 254° |
| 2026-04-26 18:54 | 18.60543 | -66.85798 | 33 ft | 155 kts | 255° |
| 2026-04-26 18:54 | 18.60288 | -66.86904 | 76 ft | 147 kts | 271° |
| 2026-04-26 18:55 | 18.60616 | -66.87006 | 143 ft | 90 kts | 114° |
| 2026-04-26 18:55 | 18.60178 | -66.86964 | 98 ft | 62 kts | 233° |
| 2026-04-26 18:55 | 18.60074 | -66.87155 | 163 ft | 9 kts | 36° |
| 2026-04-26 18:55 | 18.60286 | -66.86834 | 181 ft | 83 kts | 55° |
| 2026-04-26 18:56 | 18.60566 | -66.86362 | 279 ft | 62 kts | 58° |
| 2026-04-26 18:56 | 18.60715 | -66.86029 | 140 ft | 56 kts | 58° |
| 2026-04-26 18:56 | 18.60945 | -66.85602 | 154 ft | 63 kts | 58° |
| 2026-04-26 18:56 | 18.61141 | -66.85185 | 147 ft | 63 kts | 58° |
| 2026-04-26 18:57 | 18.61329 | -66.84756 | 140 ft | 64 kts | 58° |
| 2026-04-26 18:57 | 18.61444 | -66.84472 | 139 ft | 64 kts | 58° |
| 2026-04-26 18:57 | 18.61595 | -66.83866 | 134 ft | 70 kts | 88° |
| 2026-04-26 18:57 | 18.61216 | -66.83567 | 135 ft | 75 kts | 174° |
| 2026-04-26 18:58 | 18.60834 | -66.83905 | 137 ft | 70 kts | 236° |
| 2026-04-26 18:58 | 18.60658 | -66.84326 | 135 ft | 61 kts | 255° |
| 2026-04-26 18:58 | 18.60756 | -66.84739 | 127 ft | 64 kts | 319° |
| 2026-04-26 18:58 | 18.61194 | -66.84647 | 133 ft | 77 kts | 62° |
| 2026-04-26 18:59 | 18.60935 | -66.84229 | 129 ft | 87 kts | 181° |
| 2026-04-26 18:59 | 18.60593 | -66.84569 | 119 ft | 79 kts | 278° |
| 2026-04-26 18:59 | 18.61020 | -66.84802 | 134 ft | 88 kts | 13° |
| 2026-04-26 18:59 | 18.61248 | -66.84256 | 151 ft | 80 kts | 128° |
| 2026-04-26 19:00 | 18.60796 | -66.84028 | 130 ft | 78 kts | 142° |
| 2026-04-26 19:00 | 18.60417 | -66.83978 | 100 ft | 35 kts | 210° |
| 2026-04-26 19:00 | 18.60361 | -66.84074 | 33 ft | 3 kts | 227° |
| 2026-04-26 19:00 | 18.60373 | -66.84065 | -12 ft | 3 kts | 222° |
| 2026-04-26 19:01 | 18.60354 | -66.84082 | -10 ft | 4 kts | 220° |
| 2026-04-26 19:01 | 18.60339 | -66.84093 | 155 ft | 0 kts | 220° |
| 2026-04-26 19:01 | 18.60338 | -66.84095 | 141 ft | 0 kts | 220° |
| 2026-04-26 19:02 | 18.60245 | -66.84138 | 239 ft | 65 kts | 208° |
| 2026-04-26 19:02 | 18.59576 | -66.84277 | 893 ft | 95 kts | 220° |
| 2026-04-26 19:02 | 18.59123 | -66.84948 | 531 ft | 139 kts | 248° |
| 2026-04-26 19:02 | 18.58886 | -66.85541 | 604 ft | 123 kts | 251° |
| 2026-04-26 19:03 | 18.58441 | -66.86574 | 575 ft | 117 kts | 248° |
| 2026-04-26 19:03 | 18.58100 | -66.87343 | 548 ft | 116 kts | 248° |
| 2026-04-26 19:03 | 18.57747 | -66.88090 | 561 ft | 110 kts | 248° |
| 2026-04-26 19:03 | 18.57391 | -66.88828 | 574 ft | 114 kts | 248° |
| 2026-04-26 19:04 | 18.57043 | -66.89600 | 562 ft | 115 kts | 248° |
| 2026-04-26 19:04 | 18.56725 | -66.90373 | 572 ft | 114 kts | 248° |
| 2026-04-26 19:04 | 18.56408 | -66.91168 | 576 ft | 121 kts | 249° |
| 2026-04-26 19:04 | 18.56158 | -66.92180 | 409 ft | 165 kts | 255° |
| 2026-04-26 19:05 | 18.55725 | -66.93913 | 592 ft | 112 kts | 255° |
| 2026-04-26 19:05 | 18.55528 | -66.94690 | 586 ft | 108 kts | 255° |
| 2026-04-26 19:05 | 18.55334 | -66.95460 | 580 ft | 110 kts | 255° |
| 2026-04-26 19:06 | 18.55119 | -66.96244 | 573 ft | 110 kts | 255° |
| 2026-04-26 19:06 | 18.54914 | -66.97018 | 569 ft | 112 kts | 255° |
| 2026-04-26 19:06 | 18.54709 | -66.97804 | 566 ft | 117 kts | 255° |
| 2026-04-26 19:06 | 18.54507 | -66.98579 | 533 ft | 115 kts | 255° |
| 2026-04-26 19:07 | 18.54275 | -66.99415 | 574 ft | 119 kts | 253° |
| 2026-04-26 19:07 | 18.53992 | -67.00335 | 453 ft | 138 kts | 249° |
| 2026-04-26 19:07 | 18.53680 | -67.01116 | 985 ft | 109 kts | 247° |
| 2026-04-26 19:07 | 18.53399 | -67.01994 | 793 ft | 143 kts | 258° |
| 2026-04-26 19:08 | 18.53291 | -67.02691 | 691 ft | 143 kts | 261° |
| 2026-04-26 19:08 | 18.53039 | -67.03729 | 480 ft | 153 kts | 255° |
| 2026-04-26 19:08 | 18.52725 | -67.04773 | 499 ft | 148 kts | 254° |
| 2026-04-26 19:08 | 18.52427 | -67.05799 | 620 ft | 148 kts | 254° |
| 2026-04-26 19:09 | 18.52122 | -67.06849 | 734 ft | 150 kts | 254° |
| 2026-04-26 19:09 | 18.51730 | -67.07840 | 641 ft | 151 kts | 248° |
| 2026-04-26 19:09 | 18.51265 | -67.08814 | 489 ft | 147 kts | 246° |
| 2026-04-26 19:09 | 18.50802 | -67.09787 | 545 ft | 143 kts | 245° |
| 2026-04-26 19:10 | 18.50292 | -67.10615 | 393 ft | 117 kts | 249° |
| 2026-04-26 19:10 | 18.50097 | -67.11276 | 472 ft | 86 kts | 248° |
| 2026-04-26 19:10 | 18.49942 | -67.11840 | 497 ft | 74 kts | 253° |
| 2026-04-26 19:10 | 18.49803 | -67.12337 | 312 ft | 72 kts | 251° |
| 2026-04-26 19:11 | 18.49693 | -67.12692 | 309 ft | 24 kts | 248° |
| 2026-04-26 19:11 | 18.49691 | -67.12827 | 250 ft | 12 kts | 250° |
| 2026-04-26 19:11 | 18.49694 | -67.12906 | 241 ft | 11 kts | 243° |
| 2026-04-26 19:11 | 18.49675 | -67.12993 | 224 ft | 7 kts | 180° |
| 2026-04-26 19:12 | 18.49667 | -67.13009 | 215 ft | 0 kts | 161° |
| 2026-04-26 19:13 | 18.49666 | -67.13009 | 213 ft | 1 kts | 161° |
| 2026-04-26 19:13 | 18.49661 | -67.13007 | 216 ft | 0 kts | 161° |